sensor_id;sensor_type;location;lat;lon;timestamp;temperature;humidity
71801;HTU21D;59647;55.838;37.292;2022-09-09T00:03:48;7.09;98.93
71801;HTU21D;59647;55.838;37.292;2022-09-09T00:06:31;7.09;98.64
71801;HTU21D;59647;55.838;37.292;2022-09-09T00:09:16;7.09;97.87
71801;HTU21D;59647;55.838;37.292;2022-09-09T00:11:52;7.05;98.03
71801;HTU21D;59647;55.838;37.292;2022-09-09T00:14:40;7.00;98.80
71801;HTU21D;59647;55.838;37.292;2022-09-09T00:17:18;6.97;99.56
71801;HTU21D;59647;55.838;37.292;2022-09-09T00:20:02;6.98;100.36
71801;HTU21D;59647;55.838;37.292;2022-09-09T00:22:30;6.97;99.98
71801;HTU21D;59647;55.838;37.292;2022-09-09T00:25:10;6.99;101.62
71801;HTU21D;59647;55.838;37.292;2022-09-09T00:27:49;7.03;102.14
71801;HTU21D;59647;55.838;37.292;2022-09-09T00:30:22;7.03;102.29
71801;HTU21D;59647;55.838;37.292;2022-09-09T00:33:00;7.05;102.44
71801;HTU21D;59647;55.838;37.292;2022-09-09T00:35:38;7.07;102.34
71801;HTU21D;59647;55.838;37.292;2022-09-09T00:38:14;7.07;102.29
71801;HTU21D;59647;55.838;37.292;2022-09-09T00:57:36;6.82;100.12
71801;HTU21D;59647;55.838;37.292;2022-09-09T01:00:19;6.83;100.38
71801;HTU21D;59647;55.838;37.292;2022-09-09T01:07:52;6.86;100.83
71801;HTU21D;59647;55.838;37.292;2022-09-09T01:10:39;6.85;100.72
71801;HTU21D;59647;55.838;37.292;2022-09-09T01:13:18;6.87;100.07
71801;HTU21D;59647;55.838;37.292;2022-09-09T01:15:48;6.87;100.42
71801;HTU21D;59647;55.838;37.292;2022-09-09T01:18:17;6.85;99.87
71801;HTU21D;59647;55.838;37.292;2022-09-09T01:21:07;6.85;99.56
71801;HTU21D;59647;55.838;37.292;2022-09-09T01:26:26;6.85;99.62
71801;HTU21D;59647;55.838;37.292;2022-09-09T01:28:56;6.82;99.91
71801;HTU21D;59647;55.838;37.292;2022-09-09T01:31:34;6.80;100.84
71801;HTU21D;59647;55.838;37.292;2022-09-09T01:34:02;6.81;100.49
71801;HTU21D;59647;55.838;37.292;2022-09-09T01:36:41;6.84;100.64
71801;HTU21D;59647;55.838;37.292;2022-09-09T01:39:08;6.84;99.71
71801;HTU21D;59647;55.838;37.292;2022-09-09T01:41:35;6.80;101.28
71801;HTU21D;59647;55.838;37.292;2022-09-09T01:44:05;6.78;100.59
71801;HTU21D;59647;55.838;37.292;2022-09-09T01:46:35;6.79;100.46
71801;HTU21D;59647;55.838;37.292;2022-09-09T01:49:03;6.73;101.30
71801;HTU21D;59647;55.838;37.292;2022-09-09T01:51:31;6.71;100.61
71801;HTU21D;59647;55.838;37.292;2022-09-09T01:54:00;6.72;101.75
71801;HTU21D;59647;55.838;37.292;2022-09-09T02:02:32;6.68;100.80
71801;HTU21D;59647;55.838;37.292;2022-09-09T02:08:29;6.64;103.31
71801;HTU21D;59647;55.838;37.292;2022-09-09T02:11:00;6.66;101.68
71801;HTU21D;59647;55.838;37.292;2022-09-09T02:14:11;6.65;102.56
71801;HTU21D;59647;55.838;37.292;2022-09-09T02:16:45;6.66;101.19
71801;HTU21D;59647;55.838;37.292;2022-09-09T02:19:21;6.65;101.99
71801;HTU21D;59647;55.838;37.292;2022-09-09T02:22:04;6.65;102.36
71801;HTU21D;59647;55.838;37.292;2022-09-09T02:24:34;6.60;103.16
71801;HTU21D;59647;55.838;37.292;2022-09-09T02:27:22;6.60;100.66
71801;HTU21D;59647;55.838;37.292;2022-09-09T02:29:49;6.52;102.12
71801;HTU21D;59647;55.838;37.292;2022-09-09T02:32:22;6.50;103.39
71801;HTU21D;59647;55.838;37.292;2022-09-09T02:35:03;6.53;101.70
71801;HTU21D;59647;55.838;37.292;2022-09-09T02:37:36;6.50;102.73
71801;HTU21D;59647;55.838;37.292;2022-09-09T02:40:08;6.43;103.69
71801;HTU21D;59647;55.838;37.292;2022-09-09T02:42:47;6.42;104.03
71801;HTU21D;59647;55.838;37.292;2022-09-09T02:45:19;6.43;103.27
71801;HTU21D;59647;55.838;37.292;2022-09-09T02:48:03;6.41;103.20
71801;HTU21D;59647;55.838;37.292;2022-09-09T02:50:35;6.36;104.34
71801;HTU21D;59647;55.838;37.292;2022-09-09T02:53:24;6.33;103.23
71801;HTU21D;59647;55.838;37.292;2022-09-09T02:55:58;6.27;102.61
71801;HTU21D;59647;55.838;37.292;2022-09-09T02:58:27;6.24;102.76
71801;HTU21D;59647;55.838;37.292;2022-09-09T03:00:58;6.20;103.14
71801;HTU21D;59647;55.838;37.292;2022-09-09T03:03:27;6.21;101.92
71801;HTU21D;59647;55.838;37.292;2022-09-09T03:05:53;6.19;102.39
71801;HTU21D;59647;55.838;37.292;2022-09-09T03:08:19;6.13;102.09
71801;HTU21D;59647;55.838;37.292;2022-09-09T03:10:45;6.10;101.92
71801;HTU21D;59647;55.838;37.292;2022-09-09T03:13:13;6.06;101.84
71801;HTU21D;59647;55.838;37.292;2022-09-09T03:15:41;6.02;101.84
71801;HTU21D;59647;55.838;37.292;2022-09-09T03:18:12;5.98;102.64
71801;HTU21D;59647;55.838;37.292;2022-09-09T03:20:38;5.91;103.63
71801;HTU21D;59647;55.838;37.292;2022-09-09T03:23:04;5.91;103.86
71801;HTU21D;59647;55.838;37.292;2022-09-09T03:25:30;5.91;103.67
71801;HTU21D;59647;55.838;37.292;2022-09-09T03:27:56;5.86;104.40
71801;HTU21D;59647;55.838;37.292;2022-09-09T03:30:25;5.87;102.68
71801;HTU21D;59647;55.838;37.292;2022-09-09T03:32:51;5.87;103.49
71801;HTU21D;59647;55.838;37.292;2022-09-09T03:35:17;5.83;104.31
71801;HTU21D;59647;55.838;37.292;2022-09-09T03:37:44;5.81;104.29
71801;HTU21D;59647;55.838;37.292;2022-09-09T03:40:12;5.78;103.66
71801;HTU21D;59647;55.838;37.292;2022-09-09T03:42:39;5.76;103.31
71801;HTU21D;59647;55.838;37.292;2022-09-09T03:45:09;5.75;104.63
71801;HTU21D;59647;55.838;37.292;2022-09-09T03:47:37;5.76;103.83
71801;HTU21D;59647;55.838;37.292;2022-09-09T03:50:06;5.76;102.62
71801;HTU21D;59647;55.838;37.292;2022-09-09T03:52:39;5.75;105.23
71801;HTU21D;59647;55.838;37.292;2022-09-09T03:55:09;5.77;105.77
71801;HTU21D;59647;55.838;37.292;2022-09-09T03:57:36;5.80;104.66
71801;HTU21D;59647;55.838;37.292;2022-09-09T04:00:07;5.85;105.34
71801;HTU21D;59647;55.838;37.292;2022-09-09T04:02:42;5.90;105.76
71801;HTU21D;59647;55.838;37.292;2022-09-09T04:05:11;5.95;103.76
71801;HTU21D;59647;55.838;37.292;2022-09-09T04:07:41;5.99;103.76
71801;HTU21D;59647;55.838;37.292;2022-09-09T04:10:07;6.02;104.83
71801;HTU21D;59647;55.838;37.292;2022-09-09T04:12:36;6.05;105.06
71801;HTU21D;59647;55.838;37.292;2022-09-09T04:15:02;6.11;105.16
71801;HTU21D;59647;55.838;37.292;2022-09-09T04:17:30;6.19;104.98
71801;HTU21D;59647;55.838;37.292;2022-09-09T04:19:56;6.25;103.83
71801;HTU21D;59647;55.838;37.292;2022-09-09T04:22:23;6.27;104.24
71801;HTU21D;59647;55.838;37.292;2022-09-09T04:24:49;6.31;105.74
71801;HTU21D;59647;55.838;37.292;2022-09-09T04:27:17;6.35;104.47
71801;HTU21D;59647;55.838;37.292;2022-09-09T04:29:43;6.40;103.45
71801;HTU21D;59647;55.838;37.292;2022-09-09T04:32:09;6.46;104.10
71801;HTU21D;59647;55.838;37.292;2022-09-09T04:34:35;6.55;103.30
71801;HTU21D;59647;55.838;37.292;2022-09-09T04:37:01;6.58;104.34
71801;HTU21D;59647;55.838;37.292;2022-09-09T04:39:27;6.65;105.15
71801;HTU21D;59647;55.838;37.292;2022-09-09T04:41:54;6.71;103.18
71801;HTU21D;59647;55.838;37.292;2022-09-09T04:44:22;6.80;102.63
71801;HTU21D;59647;55.838;37.292;2022-09-09T04:46:47;6.82;103.34
71801;HTU21D;59647;55.838;37.292;2022-09-09T04:49:14;6.86;105.13
71801;HTU21D;59647;55.838;37.292;2022-09-09T04:51:40;6.93;104.32
71801;HTU21D;59647;55.838;37.292;2022-09-09T04:54:05;7.01;103.44
71801;HTU21D;59647;55.838;37.292;2022-09-09T04:56:32;7.11;102.76
71801;HTU21D;59647;55.838;37.292;2022-09-09T04:59:00;7.19;102.13
71801;HTU21D;59647;55.838;37.292;2022-09-09T05:01:40;7.28;102.40
71801;HTU21D;59647;55.838;37.292;2022-09-09T05:04:06;7.37;101.93
71801;HTU21D;59647;55.838;37.292;2022-09-09T05:06:33;7.47;101.15
71801;HTU21D;59647;55.838;37.292;2022-09-09T05:09:00;7.55;101.12
71801;HTU21D;59647;55.838;37.292;2022-09-09T05:11:31;7.65;100.86
71801;HTU21D;59647;55.838;37.292;2022-09-09T05:14:26;7.76;100.58
71801;HTU21D;59647;55.838;37.292;2022-09-09T05:16:52;7.86;100.49
71801;HTU21D;59647;55.838;37.292;2022-09-09T05:19:20;8.00;99.99
71801;HTU21D;59647;55.838;37.292;2022-09-09T05:21:48;8.12;99.65
71801;HTU21D;59647;55.838;37.292;2022-09-09T05:24:17;8.21;99.53
71801;HTU21D;59647;55.838;37.292;2022-09-09T05:26:44;8.31;98.89
71801;HTU21D;59647;55.838;37.292;2022-09-09T05:29:10;8.44;98.81
71801;HTU21D;59647;55.838;37.292;2022-09-09T05:31:36;8.56;98.23
71801;HTU21D;59647;55.838;37.292;2022-09-09T05:34:08;8.71;98.75
71801;HTU21D;59647;55.838;37.292;2022-09-09T05:36:34;8.80;98.22
71801;HTU21D;59647;55.838;37.292;2022-09-09T05:39:00;8.90;97.13
71801;HTU21D;59647;55.838;37.292;2022-09-09T05:41:28;9.05;97.90
71801;HTU21D;59647;55.838;37.292;2022-09-09T05:43:56;9.20;97.43
71801;HTU21D;59647;55.838;37.292;2022-09-09T05:46:24;9.35;97.57
71801;HTU21D;59647;55.838;37.292;2022-09-09T05:48:53;9.41;96.27
71801;HTU21D;59647;55.838;37.292;2022-09-09T05:51:25;9.44;96.01
71801;HTU21D;59647;55.838;37.292;2022-09-09T05:53:54;9.51;95.10
71801;HTU21D;59647;55.838;37.292;2022-09-09T05:56:27;9.60;94.70
71801;HTU21D;59647;55.838;37.292;2022-09-09T05:58:55;9.61;93.97
71801;HTU21D;59647;55.838;37.292;2022-09-09T06:03:50;9.83;94.98
71801;HTU21D;59647;55.838;37.292;2022-09-09T06:06:23;9.94;93.78
71801;HTU21D;59647;55.838;37.292;2022-09-09T06:08:51;10.07;93.33
71801;HTU21D;59647;55.838;37.292;2022-09-09T06:11:20;10.10;88.92
71801;HTU21D;59647;55.838;37.292;2022-09-09T06:13:48;10.28;93.49
71801;HTU21D;59647;55.838;37.292;2022-09-09T06:16:18;10.33;91.63
71801;HTU21D;59647;55.838;37.292;2022-09-09T06:18:45;10.40;90.96
71801;HTU21D;59647;55.838;37.292;2022-09-09T06:23:40;10.59;89.41
71801;HTU21D;59647;55.838;37.292;2022-09-09T06:26:18;10.68;88.99
71801;HTU21D;59647;55.838;37.292;2022-09-09T06:28:46;10.82;87.22
71801;HTU21D;59647;55.838;37.292;2022-09-09T06:31:14;10.92;89.04
71801;HTU21D;59647;55.838;37.292;2022-09-09T06:33:43;11.05;86.85
71801;HTU21D;59647;55.838;37.292;2022-09-09T06:36:13;11.14;83.59
71801;HTU21D;59647;55.838;37.292;2022-09-09T06:38:41;11.18;87.51
71801;HTU21D;59647;55.838;37.292;2022-09-09T06:41:10;11.14;86.42
71801;HTU21D;59647;55.838;37.292;2022-09-09T06:43:37;11.10;87.79
71801;HTU21D;59647;55.838;37.292;2022-09-09T06:46:06;11.27;84.83
71801;HTU21D;59647;55.838;37.292;2022-09-09T06:48:34;11.45;82.07
71801;HTU21D;59647;55.838;37.292;2022-09-09T06:51:01;11.61;83.37
71801;HTU21D;59647;55.838;37.292;2022-09-09T06:53:28;11.74;84.03
71801;HTU21D;59647;55.838;37.292;2022-09-09T06:55:54;11.82;84.84
71801;HTU21D;59647;55.838;37.292;2022-09-09T06:58:20;11.84;84.19
71801;HTU21D;59647;55.838;37.292;2022-09-09T07:00:50;11.82;84.11
71801;HTU21D;59647;55.838;37.292;2022-09-09T07:03:16;11.79;81.35
71801;HTU21D;59647;55.838;37.292;2022-09-09T07:05:43;11.70;82.49
71801;HTU21D;59647;55.838;37.292;2022-09-09T07:08:18;11.68;80.48
71801;HTU21D;59647;55.838;37.292;2022-09-09T07:10:44;11.61;80.06
71801;HTU21D;59647;55.838;37.292;2022-09-09T07:13:10;11.62;83.10
71801;HTU21D;59647;55.838;37.292;2022-09-09T07:15:36;11.67;75.85
71801;HTU21D;59647;55.838;37.292;2022-09-09T07:18:04;11.78;80.40
71801;HTU21D;59647;55.838;37.292;2022-09-09T07:20:30;11.88;79.47
71801;HTU21D;59647;55.838;37.292;2022-09-09T07:22:56;12.04;77.40
71801;HTU21D;59647;55.838;37.292;2022-09-09T07:25:22;11.96;80.35
71801;HTU21D;59647;55.838;37.292;2022-09-09T07:27:48;11.73;81.53
71801;HTU21D;59647;55.838;37.292;2022-09-09T07:30:15;11.54;81.22
71801;HTU21D;59647;55.838;37.292;2022-09-09T07:32:41;11.42;79.88
71801;HTU21D;59647;55.838;37.292;2022-09-09T07:35:07;11.42;80.75
71801;HTU21D;59647;55.838;37.292;2022-09-09T07:37:36;11.58;75.87
71801;HTU21D;59647;55.838;37.292;2022-09-09T07:40:04;11.83;81.63
71801;HTU21D;59647;55.838;37.292;2022-09-09T07:42:31;12.15;81.17
71801;HTU21D;59647;55.838;37.292;2022-09-09T07:44:57;12.20;77.64
71801;HTU21D;59647;55.838;37.292;2022-09-09T07:47:23;12.40;78.97
71801;HTU21D;59647;55.838;37.292;2022-09-09T07:49:50;12.46;75.82
71801;HTU21D;59647;55.838;37.292;2022-09-09T07:52:20;12.42;73.64
71801;HTU21D;59647;55.838;37.292;2022-09-09T07:54:51;12.26;74.06
71801;HTU21D;59647;55.838;37.292;2022-09-09T07:57:18;12.26;78.21
71801;HTU21D;59647;55.838;37.292;2022-09-09T07:59:44;12.03;75.10
71801;HTU21D;59647;55.838;37.292;2022-09-09T08:02:10;11.97;78.13
71801;HTU21D;59647;55.838;37.292;2022-09-09T08:04:36;11.82;76.24
71801;HTU21D;59647;55.838;37.292;2022-09-09T08:07:03;11.90;75.87
71801;HTU21D;59647;55.838;37.292;2022-09-09T08:09:33;12.19;75.23
71801;HTU21D;59647;55.838;37.292;2022-09-09T08:12:11;12.31;77.95
71801;HTU21D;59647;55.838;37.292;2022-09-09T08:14:38;12.37;77.42
71801;HTU21D;59647;55.838;37.292;2022-09-09T08:17:05;12.38;78.79
71801;HTU21D;59647;55.838;37.292;2022-09-09T08:19:32;12.31;72.89
71801;HTU21D;59647;55.838;37.292;2022-09-09T08:22:02;12.26;76.17
71801;HTU21D;59647;55.838;37.292;2022-09-09T08:24:30;12.15;76.26
71801;HTU21D;59647;55.838;37.292;2022-09-09T08:26:56;12.05;73.57
71801;HTU21D;59647;55.838;37.292;2022-09-09T08:29:23;12.06;77.81
71801;HTU21D;59647;55.838;37.292;2022-09-09T08:31:56;12.08;74.10
71801;HTU21D;59647;55.838;37.292;2022-09-09T08:34:24;12.40;76.11
71801;HTU21D;59647;55.838;37.292;2022-09-09T08:36:52;12.73;71.61
71801;HTU21D;59647;55.838;37.292;2022-09-09T08:39:23;13.35;71.27
71801;HTU21D;59647;55.838;37.292;2022-09-09T08:50:30;13.23;67.78
71801;HTU21D;59647;55.838;37.292;2022-09-09T08:55:45;13.08;72.85
71801;HTU21D;59647;55.838;37.292;2022-09-09T08:58:20;13.10;71.02
71801;HTU21D;59647;55.838;37.292;2022-09-09T09:04:04;13.48;64.58
71801;HTU21D;59647;55.838;37.292;2022-09-09T09:06:43;13.61;73.99
71801;HTU21D;59647;55.838;37.292;2022-09-09T09:12:20;13.24;69.05
71801;HTU21D;59647;55.838;37.292;2022-09-09T09:14:48;13.08;72.61
71801;HTU21D;59647;55.838;37.292;2022-09-09T09:17:20;12.90;72.11
71801;HTU21D;59647;55.838;37.292;2022-09-09T09:19:48;12.91;72.45
71801;HTU21D;59647;55.838;37.292;2022-09-09T09:22:23;12.99;68.77
71801;HTU21D;59647;55.838;37.292;2022-09-09T09:25:31;13.12;69.78
71801;HTU21D;59647;55.838;37.292;2022-09-09T09:28:16;13.32;69.89
71801;HTU21D;59647;55.838;37.292;2022-09-09T09:30:57;13.54;70.17
71801;HTU21D;59647;55.838;37.292;2022-09-09T09:33:48;13.67;68.55
71801;HTU21D;59647;55.838;37.292;2022-09-09T09:36:16;13.67;69.97
71801;HTU21D;59647;55.838;37.292;2022-09-09T09:39:00;13.84;68.10
71801;HTU21D;59647;55.838;37.292;2022-09-09T09:41:35;14.00;71.55
71801;HTU21D;59647;55.838;37.292;2022-09-09T09:44:05;13.94;67.57
71801;HTU21D;59647;55.838;37.292;2022-09-09T09:46:31;13.98;68.22
71801;HTU21D;59647;55.838;37.292;2022-09-09T09:49:09;14.26;68.54
71801;HTU21D;59647;55.838;37.292;2022-09-09T09:51:36;14.48;65.94
71801;HTU21D;59647;55.838;37.292;2022-09-09T09:56:43;14.97;65.99
71801;HTU21D;59647;55.838;37.292;2022-09-09T09:59:32;15.00;63.25
71801;HTU21D;59647;55.838;37.292;2022-09-09T10:02:14;14.82;67.79
71801;HTU21D;59647;55.838;37.292;2022-09-09T10:04:40;14.56;66.97
71801;HTU21D;59647;55.838;37.292;2022-09-09T10:07:21;14.41;67.72
71801;HTU21D;59647;55.838;37.292;2022-09-09T10:09:53;14.22;70.07
71801;HTU21D;59647;55.838;37.292;2022-09-09T10:12:29;14.00;61.91
71801;HTU21D;59647;55.838;37.292;2022-09-09T10:15:09;14.01;69.40
71801;HTU21D;59647;55.838;37.292;2022-09-09T10:18:04;14.25;67.80
71801;HTU21D;59647;55.838;37.292;2022-09-09T10:37:04;14.05;66.44
71801;HTU21D;59647;55.838;37.292;2022-09-09T10:39:38;14.00;66.13
71801;HTU21D;59647;55.838;37.292;2022-09-09T10:42:16;13.98;67.18
71801;HTU21D;59647;55.838;37.292;2022-09-09T10:55:57;14.44;57.90
71801;HTU21D;59647;55.838;37.292;2022-09-09T10:58:31;14.39;64.16
71801;HTU21D;59647;55.838;37.292;2022-09-09T11:01:09;14.65;59.25
71801;HTU21D;59647;55.838;37.292;2022-09-09T11:03:37;14.83;56.87
71801;HTU21D;59647;55.838;37.292;2022-09-09T11:06:07;15.01;63.83
71801;HTU21D;59647;55.838;37.292;2022-09-09T11:08:38;14.88;62.85
71801;HTU21D;59647;55.838;37.292;2022-09-09T11:11:12;14.78;66.13
71801;HTU21D;59647;55.838;37.292;2022-09-09T11:13:56;14.55;66.91
71801;HTU21D;59647;55.838;37.292;2022-09-09T11:16:42;14.23;65.58
71801;HTU21D;59647;55.838;37.292;2022-09-09T11:21:50;14.07;64.83
71801;HTU21D;59647;55.838;37.292;2022-09-09T11:36:19;14.86;53.78
71801;HTU21D;59647;55.838;37.292;2022-09-09T11:38:49;14.73;57.81
71801;HTU21D;59647;55.838;37.292;2022-09-09T11:41:21;14.83;62.53
71801;HTU21D;59647;55.838;37.292;2022-09-09T11:43:50;15.07;60.28
71801;HTU21D;59647;55.838;37.292;2022-09-09T11:46:21;15.28;59.90
71801;HTU21D;59647;55.838;37.292;2022-09-09T11:49:00;15.63;62.67
71801;HTU21D;59647;55.838;37.292;2022-09-09T11:51:27;16.01;63.37
71801;HTU21D;59647;55.838;37.292;2022-09-09T11:56:44;16.55;55.69
71801;HTU21D;59647;55.838;37.292;2022-09-09T11:59:37;16.82;59.19
71801;HTU21D;59647;55.838;37.292;2022-09-09T12:04:39;16.75;58.96
71801;HTU21D;59647;55.838;37.292;2022-09-09T12:10:40;16.69;51.82
71801;HTU21D;59647;55.838;37.292;2022-09-09T12:12:41;16.75;59.17
71801;HTU21D;59647;55.838;37.292;2022-09-09T12:17:42;16.12;56.34
71801;HTU21D;59647;55.838;37.292;2022-09-09T12:22:58;16.05;56.44
71801;HTU21D;59647;55.838;37.292;2022-09-09T12:31:05;16.02;55.00
71801;HTU21D;59647;55.838;37.292;2022-09-09T12:33:35;15.96;62.11
71801;HTU21D;59647;55.838;37.292;2022-09-09T12:36:03;15.86;60.28
71801;HTU21D;59647;55.838;37.292;2022-09-09T12:38:36;15.74;60.18
71801;HTU21D;59647;55.838;37.292;2022-09-09T12:41:02;15.60;62.31
71801;HTU21D;59647;55.838;37.292;2022-09-09T12:43:28;15.66;60.04
71801;HTU21D;59647;55.838;37.292;2022-09-09T12:46:03;16.15;59.86
71801;HTU21D;59647;55.838;37.292;2022-09-09T12:48:38;16.60;52.81
71801;HTU21D;59647;55.838;37.292;2022-09-09T12:51:28;16.94;50.08
71801;HTU21D;59647;55.838;37.292;2022-09-09T12:53:55;17.28;55.53
71801;HTU21D;59647;55.838;37.292;2022-09-09T12:56:24;17.32;55.10
71801;HTU21D;59647;55.838;37.292;2022-09-09T12:58:56;17.50;53.37
71801;HTU21D;59647;55.838;37.292;2022-09-09T13:01:25;17.81;53.05
71801;HTU21D;59647;55.838;37.292;2022-09-09T13:03:52;17.88;53.68
71801;HTU21D;59647;55.838;37.292;2022-09-09T13:06:36;17.81;52.69
71801;HTU21D;59647;55.838;37.292;2022-09-09T13:09:02;17.49;51.21
71801;HTU21D;59647;55.838;37.292;2022-09-09T13:11:37;17.38;54.28
71801;HTU21D;59647;55.838;37.292;2022-09-09T13:14:05;17.52;57.29
71801;HTU21D;59647;55.838;37.292;2022-09-09T13:16:34;17.75;52.78
71801;HTU21D;59647;55.838;37.292;2022-09-09T13:19:09;17.96;55.04
71801;HTU21D;59647;55.838;37.292;2022-09-09T13:21:39;18.08;53.19
71801;HTU21D;59647;55.838;37.292;2022-09-09T13:24:26;18.30;47.86
71801;HTU21D;59647;55.838;37.292;2022-09-09T13:26:59;18.43;50.21
71801;HTU21D;59647;55.838;37.292;2022-09-09T13:29:28;18.58;52.73
71801;HTU21D;59647;55.838;37.292;2022-09-09T13:32:04;18.73;43.93
71801;HTU21D;59647;55.838;37.292;2022-09-09T13:34:32;18.80;51.30
71801;HTU21D;59647;55.838;37.292;2022-09-09T13:37:40;18.99;49.69
71801;HTU21D;59647;55.838;37.292;2022-09-09T13:40:17;18.77;43.97
71801;HTU21D;59647;55.838;37.292;2022-09-09T13:42:44;18.37;47.37
71801;HTU21D;59647;55.838;37.292;2022-09-09T13:45:19;18.05;47.39
71801;HTU21D;59647;55.838;37.292;2022-09-09T13:47:46;17.92;53.36
71801;HTU21D;59647;55.838;37.292;2022-09-09T13:50:20;18.00;50.43
71801;HTU21D;59647;55.838;37.292;2022-09-09T13:52:51;18.20;49.81
71801;HTU21D;59647;55.838;37.292;2022-09-09T13:55:19;18.30;50.80
71801;HTU21D;59647;55.838;37.292;2022-09-09T13:57:51;18.38;50.11
71801;HTU21D;59647;55.838;37.292;2022-09-09T14:00:17;18.42;50.83
71801;HTU21D;59647;55.838;37.292;2022-09-09T14:02:43;18.41;49.05
71801;HTU21D;59647;55.838;37.292;2022-09-09T14:05:10;18.49;50.07
71801;HTU21D;59647;55.838;37.292;2022-09-09T14:07:38;18.54;46.54
71801;HTU21D;59647;55.838;37.292;2022-09-09T14:10:06;18.57;47.15
71801;HTU21D;59647;55.838;37.292;2022-09-09T14:12:32;18.55;52.72
71801;HTU21D;59647;55.838;37.292;2022-09-09T14:14:58;18.39;46.10
71801;HTU21D;59647;55.838;37.292;2022-09-09T14:17:25;18.44;47.30
71801;HTU21D;59647;55.838;37.292;2022-09-09T14:19:55;18.47;49.77
71801;HTU21D;59647;55.838;37.292;2022-09-09T14:22:22;18.38;50.59
71801;HTU21D;59647;55.838;37.292;2022-09-09T14:24:48;18.15;50.79
71801;HTU21D;59647;55.838;37.292;2022-09-09T14:27:14;17.88;51.23
71801;HTU21D;59647;55.838;37.292;2022-09-09T14:29:40;17.53;50.63
71801;HTU21D;59647;55.838;37.292;2022-09-09T14:32:06;17.22;51.15
71801;HTU21D;59647;55.838;37.292;2022-09-09T14:34:32;17.17;52.36
71801;HTU21D;59647;55.838;37.292;2022-09-09T14:36:59;17.15;51.77
71801;HTU21D;59647;55.838;37.292;2022-09-09T14:39:24;17.08;52.20
71801;HTU21D;59647;55.838;37.292;2022-09-09T14:41:50;16.98;53.43
71801;HTU21D;59647;55.838;37.292;2022-09-09T14:44:16;17.00;54.34
71801;HTU21D;59647;55.838;37.292;2022-09-09T14:46:43;16.76;51.91
71801;HTU21D;59647;55.838;37.292;2022-09-09T14:49:09;16.66;52.64
71801;HTU21D;59647;55.838;37.292;2022-09-09T14:51:36;16.62;52.90
71801;HTU21D;59647;55.838;37.292;2022-09-09T14:54:02;16.67;52.72
71801;HTU21D;59647;55.838;37.292;2022-09-09T14:56:31;16.54;51.52
71801;HTU21D;59647;55.838;37.292;2022-09-09T14:58:58;16.59;52.50
71801;HTU21D;59647;55.838;37.292;2022-09-09T15:01:26;16.67;53.06
71801;HTU21D;59647;55.838;37.292;2022-09-09T15:03:58;16.59;53.30
71801;HTU21D;59647;55.838;37.292;2022-09-09T15:06:25;16.41;53.97
71801;HTU21D;59647;55.838;37.292;2022-09-09T15:08:52;16.12;52.50
71801;HTU21D;59647;55.838;37.292;2022-09-09T15:11:19;15.93;54.97
71801;HTU21D;59647;55.838;37.292;2022-09-09T15:13:46;15.72;54.00
71801;HTU21D;59647;55.838;37.292;2022-09-09T15:16:17;15.53;54.17
71801;HTU21D;59647;55.838;37.292;2022-09-09T15:18:44;15.37;55.64
71801;HTU21D;59647;55.838;37.292;2022-09-09T15:21:12;15.24;56.26
71801;HTU21D;59647;55.838;37.292;2022-09-09T15:23:38;15.10;56.73
71801;HTU21D;59647;55.838;37.292;2022-09-09T15:26:05;14.94;57.67
71801;HTU21D;59647;55.838;37.292;2022-09-09T15:28:32;14.74;58.27
71801;HTU21D;59647;55.838;37.292;2022-09-09T15:31:13;14.56;58.17
71801;HTU21D;59647;55.838;37.292;2022-09-09T15:33:48;14.36;58.64
71801;HTU21D;59647;55.838;37.292;2022-09-09T15:36:20;14.19;59.12
71801;HTU21D;59647;55.838;37.292;2022-09-09T15:38:48;14.04;59.29
71801;HTU21D;59647;55.838;37.292;2022-09-09T15:41:14;13.91;60.15
71801;HTU21D;59647;55.838;37.292;2022-09-09T15:43:48;13.78;62.16
71801;HTU21D;59647;55.838;37.292;2022-09-09T15:48:55;13.53;62.37
71801;HTU21D;59647;55.838;37.292;2022-09-09T15:51:21;13.43;62.81
71801;HTU21D;59647;55.838;37.292;2022-09-09T15:53:56;13.32;63.38
71801;HTU21D;59647;55.838;37.292;2022-09-09T15:56:24;13.22;63.79
71801;HTU21D;59647;55.838;37.292;2022-09-09T15:58:53;13.06;64.23
71801;HTU21D;59647;55.838;37.292;2022-09-09T16:01:19;12.93;64.98
71801;HTU21D;59647;55.838;37.292;2022-09-09T16:03:45;12.79;65.33
71801;HTU21D;59647;55.838;37.292;2022-09-09T16:06:18;12.69;65.76
71801;HTU21D;59647;55.838;37.292;2022-09-09T16:08:45;12.58;66.28
71801;HTU21D;59647;55.838;37.292;2022-09-09T16:11:14;12.45;66.66
71801;HTU21D;59647;55.838;37.292;2022-09-09T16:13:43;12.36;67.06
71801;HTU21D;59647;55.838;37.292;2022-09-09T16:16:13;12.26;67.64
71801;HTU21D;59647;55.838;37.292;2022-09-09T16:18:44;12.18;68.02
71801;HTU21D;59647;55.838;37.292;2022-09-09T16:21:24;12.10;68.43
71801;HTU21D;59647;55.838;37.292;2022-09-09T16:23:52;12.01;68.49
71801;HTU21D;59647;55.838;37.292;2022-09-09T16:26:22;11.87;68.95
71801;HTU21D;59647;55.838;37.292;2022-09-09T16:28:49;11.75;69.34
71801;HTU21D;59647;55.838;37.292;2022-09-09T16:31:17;11.63;69.67
71801;HTU21D;59647;55.838;37.292;2022-09-09T16:33:44;11.55;69.49
71801;HTU21D;59647;55.838;37.292;2022-09-09T16:36:21;11.42;70.15
71801;HTU21D;59647;55.838;37.292;2022-09-09T16:38:48;11.29;70.39
71801;HTU21D;59647;55.838;37.292;2022-09-09T16:41:17;11.17;70.81
71801;HTU21D;59647;55.838;37.292;2022-09-09T16:43:45;11.08;71.10
71801;HTU21D;59647;55.838;37.292;2022-09-09T16:46:14;11.00;71.56
71801;HTU21D;59647;55.838;37.292;2022-09-09T16:48:43;10.94;71.41
71801;HTU21D;59647;55.838;37.292;2022-09-09T16:51:18;10.85;72.36
71801;HTU21D;59647;55.838;37.292;2022-09-09T16:53:44;10.77;71.87
71801;HTU21D;59647;55.838;37.292;2022-09-09T16:56:14;10.69;72.53
71801;HTU21D;59647;55.838;37.292;2022-09-09T16:58:41;10.62;72.57
71801;HTU21D;59647;55.838;37.292;2022-09-09T17:01:11;10.51;72.89
71801;HTU21D;59647;55.838;37.292;2022-09-09T17:03:42;10.40;73.06
71801;HTU21D;59647;55.838;37.292;2022-09-09T17:06:10;10.30;73.44
71801;HTU21D;59647;55.838;37.292;2022-09-09T17:08:38;10.24;73.61
71801;HTU21D;59647;55.838;37.292;2022-09-09T17:11:19;10.16;74.49
71801;HTU21D;59647;55.838;37.292;2022-09-09T17:13:47;10.09;74.55
71801;HTU21D;59647;55.838;37.292;2022-09-09T17:16:15;10.01;74.67
71801;HTU21D;59647;55.838;37.292;2022-09-09T17:18:41;9.93;74.86
71801;HTU21D;59647;55.838;37.292;2022-09-09T17:21:12;9.85;75.21
71801;HTU21D;59647;55.838;37.292;2022-09-09T17:23:40;9.80;75.52
71801;HTU21D;59647;55.838;37.292;2022-09-09T17:26:08;9.72;75.58
71801;HTU21D;59647;55.838;37.292;2022-09-09T17:28:36;9.66;76.11
71801;HTU21D;59647;55.838;37.292;2022-09-09T17:31:05;9.57;76.24